sensor_id;sensor_type;location;lat;lon;timestamp;P1;durP1;ratioP1;P2;durP2;ratioP2
51943;SDS011;37969;53.132;6.370;2023-11-21T00:02:26;39.15;;;9.57;;
51943;SDS011;37969;53.132;6.370;2023-11-21T00:04:53;36.95;;;9.48;;
51943;SDS011;37969;53.132;6.370;2023-11-21T00:07:26;44.90;;;9.88;;
51943;SDS011;37969;53.132;6.370;2023-11-21T00:09:52;34.90;;;9.13;;
51943;SDS011;37969;53.132;6.370;2023-11-21T00:12:20;63.40;;;19.08;;
51943;SDS011;37969;53.132;6.370;2023-11-21T00:14:49;30.80;;;9.20;;
51943;SDS011;37969;53.132;6.370;2023-11-21T00:17:19;36.28;;;9.38;;
51943;SDS011;37969;53.132;6.370;2023-11-21T00:19:49;35.40;;;8.90;;
51943;SDS011;37969;53.132;6.370;2023-11-21T00:22:18;40.40;;;9.68;;
51943;SDS011;37969;53.132;6.370;2023-11-21T00:24:50;34.33;;;9.43;;
51943;SDS011;37969;53.132;6.370;2023-11-21T00:27:17;39.45;;;9.38;;
51943;SDS011;37969;53.132;6.370;2023-11-21T00:29:45;40.47;;;9.15;;
51943;SDS011;37969;53.132;6.370;2023-11-21T00:32:14;44.92;;;9.25;;
51943;SDS011;37969;53.132;6.370;2023-11-21T00:34:41;38.70;;;9.70;;
51943;SDS011;37969;53.132;6.370;2023-11-21T00:37:15;45.92;;;9.35;;
51943;SDS011;37969;53.132;6.370;2023-11-21T00:39:44;43.90;;;9.27;;
51943;SDS011;37969;53.132;6.370;2023-11-21T00:42:15;48.65;;;9.90;;
51943;SDS011;37969;53.132;6.370;2023-11-21T00:44:41;54.20;;;10.90;;
51943;SDS011;37969;53.132;6.370;2023-11-21T00:47:08;44.78;;;10.75;;
51943;SDS011;37969;53.132;6.370;2023-11-21T00:49:35;42.67;;;11.05;;
51943;SDS011;37969;53.132;6.370;2023-11-21T00:52:04;36.15;;;9.85;;
51943;SDS011;37969;53.132;6.370;2023-11-21T00:54:32;41.50;;;11.00;;
51943;SDS011;37969;53.132;6.370;2023-11-21T00:57:00;41.78;;;10.30;;
51943;SDS011;37969;53.132;6.370;2023-11-21T00:59:28;42.97;;;9.93;;
51943;SDS011;37969;53.132;6.370;2023-11-21T01:02:00;46.08;;;11.73;;
51943;SDS011;37969;53.132;6.370;2023-11-21T01:04:35;53.78;;;12.27;;
51943;SDS011;37969;53.132;6.370;2023-11-21T01:07:03;53.08;;;13.23;;
51943;SDS011;37969;53.132;6.370;2023-11-21T01:09:31;47.85;;;12.23;;
51943;SDS011;37969;53.132;6.370;2023-11-21T01:11:58;52.53;;;13.05;;
51943;SDS011;37969;53.132;6.370;2023-11-21T01:14:30;45.03;;;11.73;;
51943;SDS011;37969;53.132;6.370;2023-11-21T01:17:00;50.47;;;13.32;;
51943;SDS011;37969;53.132;6.370;2023-11-21T01:19:31;46.33;;;14.30;;
51943;SDS011;37969;53.132;6.370;2023-11-21T01:21:57;52.78;;;13.50;;
51943;SDS011;37969;53.132;6.370;2023-11-21T01:24:24;58.88;;;15.32;;
51943;SDS011;37969;53.132;6.370;2023-11-21T01:26:53;63.10;;;15.32;;
51943;SDS011;37969;53.132;6.370;2023-11-21T01:29:19;51.22;;;14.75;;
51943;SDS011;37969;53.132;6.370;2023-11-21T01:31:49;51.75;;;14.43;;
51943;SDS011;37969;53.132;6.370;2023-11-21T01:34:18;61.73;;;16.17;;
51943;SDS011;37969;53.132;6.370;2023-11-21T01:36:46;56.20;;;15.57;;
51943;SDS011;37969;53.132;6.370;2023-11-21T01:39:14;59.55;;;15.85;;
51943;SDS011;37969;53.132;6.370;2023-11-21T01:41:49;68.97;;;16.88;;
51943;SDS011;37969;53.132;6.370;2023-11-21T01:44:17;74.75;;;18.08;;
51943;SDS011;37969;53.132;6.370;2023-11-21T01:46:44;63.75;;;17.00;;
51943;SDS011;37969;53.132;6.370;2023-11-21T01:49:13;88.93;;;20.05;;
51943;SDS011;37969;53.132;6.370;2023-11-21T01:51:41;81.43;;;17.67;;
51943;SDS011;37969;53.132;6.370;2023-11-21T01:54:09;65.68;;;17.40;;
51943;SDS011;37969;53.132;6.370;2023-11-21T01:56:37;70.63;;;18.90;;
51943;SDS011;37969;53.132;6.370;2023-11-21T01:59:04;90.18;;;20.73;;
51943;SDS011;37969;53.132;6.370;2023-11-21T02:01:32;87.47;;;19.30;;
51943;SDS011;37969;53.132;6.370;2023-11-21T02:04:01;74.70;;;18.70;;
51943;SDS011;37969;53.132;6.370;2023-11-21T02:06:27;97.03;;;21.88;;
51943;SDS011;37969;53.132;6.370;2023-11-21T02:08:56;64.70;;;18.48;;
51943;SDS011;37969;53.132;6.370;2023-11-21T02:11:25;82.80;;;20.05;;
51943;SDS011;37969;53.132;6.370;2023-11-21T02:13:54;93.65;;;22.00;;
51943;SDS011;37969;53.132;6.370;2023-11-21T02:16:26;82.50;;;19.70;;
51943;SDS011;37969;53.132;6.370;2023-11-21T02:18:56;85.47;;;22.30;;
51943;SDS011;37969;53.132;6.370;2023-11-21T02:21:24;55.78;;;18.25;;
51943;SDS011;37969;53.132;6.370;2023-11-21T02:23:50;61.70;;;18.70;;
51943;SDS011;37969;53.132;6.370;2023-11-21T02:28:51;80.82;;;20.95;;
51943;SDS011;37969;53.132;6.370;2023-11-21T02:31:18;82.47;;;21.60;;
51943;SDS011;37969;53.132;6.370;2023-11-21T02:33:46;96.32;;;22.60;;
51943;SDS011;37969;53.132;6.370;2023-11-21T02:38:46;70.50;;;19.27;;
51943;SDS011;37969;53.132;6.370;2023-11-21T02:41:16;68.63;;;19.80;;
51943;SDS011;37969;53.132;6.370;2023-11-21T02:43:45;100.93;;;24.47;;
51943;SDS011;37969;53.132;6.370;2023-11-21T02:46:11;96.35;;;24.35;;
51943;SDS011;37969;53.132;6.370;2023-11-21T02:48:38;100.90;;;24.48;;
51943;SDS011;37969;53.132;6.370;2023-11-21T02:51:04;62.53;;;19.95;;
51943;SDS011;37969;53.132;6.370;2023-11-21T02:53:33;83.57;;;22.38;;
51943;SDS011;37969;53.132;6.370;2023-11-21T02:56:04;80.80;;;22.10;;
51943;SDS011;37969;53.132;6.370;2023-11-21T02:58:35;64.22;;;20.00;;
51943;SDS011;37969;53.132;6.370;2023-11-21T03:01:10;85.38;;;22.45;;
51943;SDS011;37969;53.132;6.370;2023-11-21T03:03:38;71.68;;;21.23;;
51943;SDS011;37969;53.132;6.370;2023-11-21T03:06:06;76.80;;;20.90;;
51943;SDS011;37969;53.132;6.370;2023-11-21T03:08:35;90.78;;;23.63;;
51943;SDS011;37969;53.132;6.370;2023-11-21T03:11:02;93.03;;;23.48;;
51943;SDS011;37969;53.132;6.370;2023-11-21T03:13:33;90.82;;;22.50;;
51943;SDS011;37969;53.132;6.370;2023-11-21T03:16:00;80.32;;;22.92;;
51943;SDS011;37969;53.132;6.370;2023-11-21T03:18:31;69.38;;;21.75;;
51943;SDS011;37969;53.132;6.370;2023-11-21T03:21:01;69.38;;;20.90;;
51943;SDS011;37969;53.132;6.370;2023-11-21T03:23:27;102.75;;;24.15;;
51943;SDS011;37969;53.132;6.370;2023-11-21T03:25:54;74.55;;;22.58;;
51943;SDS011;37969;53.132;6.370;2023-11-21T03:28:20;92.53;;;24.25;;
51943;SDS011;37969;53.132;6.370;2023-11-21T03:30:46;89.93;;;24.27;;
51943;SDS011;37969;53.132;6.370;2023-11-21T03:33:12;96.38;;;24.95;;
51943;SDS011;37969;53.132;6.370;2023-11-21T03:35:40;98.65;;;25.60;;
51943;SDS011;37969;53.132;6.370;2023-11-21T03:38:09;140.75;;;29.45;;
51943;SDS011;37969;53.132;6.370;2023-11-21T03:43:05;106.63;;;24.92;;
51943;SDS011;37969;53.132;6.370;2023-11-21T03:45:34;111.05;;;26.02;;
51943;SDS011;37969;53.132;6.370;2023-11-21T03:48:01;116.28;;;25.75;;
51943;SDS011;37969;53.132;6.370;2023-11-21T03:50:30;79.20;;;24.10;;
51943;SDS011;37969;53.132;6.370;2023-11-21T03:52:56;80.47;;;24.00;;
51943;SDS011;37969;53.132;6.370;2023-11-21T03:55:26;85.32;;;23.85;;
51943;SDS011;37969;53.132;6.370;2023-11-21T03:57:53;67.38;;;22.70;;
51943;SDS011;37969;53.132;6.370;2023-11-21T04:00:20;79.13;;;22.80;;
51943;SDS011;37969;53.132;6.370;2023-11-21T04:02:53;95.07;;;25.95;;
51943;SDS011;37969;53.132;6.370;2023-11-21T04:05:22;90.10;;;24.92;;
51943;SDS011;37969;53.132;6.370;2023-11-21T04:07:52;72.70;;;23.00;;
51943;SDS011;37969;53.132;6.370;2023-11-21T04:10:21;88.10;;;24.27;;
51943;SDS011;37969;53.132;6.370;2023-11-21T04:12:49;75.03;;;23.45;;
51943;SDS011;37969;53.132;6.370;2023-11-21T04:15:16;71.32;;;22.20;;
51943;SDS011;37969;53.132;6.370;2023-11-21T04:17:45;71.30;;;23.58;;
51943;SDS011;37969;53.132;6.370;2023-11-21T04:20:14;94.70;;;26.07;;
51943;SDS011;37969;53.132;6.370;2023-11-21T04:22:43;96.95;;;25.60;;
51943;SDS011;37969;53.132;6.370;2023-11-21T04:25:15;84.00;;;25.10;;
51943;SDS011;37969;53.132;6.370;2023-11-21T04:27:43;91.82;;;25.88;;
51943;SDS011;37969;53.132;6.370;2023-11-21T04:30:13;59.78;;;22.40;;
51943;SDS011;37969;53.132;6.370;2023-11-21T04:32:42;51.20;;;20.38;;
51943;SDS011;37969;53.132;6.370;2023-11-21T04:35:09;68.00;;;22.98;;
51943;SDS011;37969;53.132;6.370;2023-11-21T04:37:36;68.95;;;22.17;;
51943;SDS011;37969;53.132;6.370;2023-11-21T04:40:05;78.40;;;24.47;;
51943;SDS011;37969;53.132;6.370;2023-11-21T04:42:35;66.85;;;23.50;;
51943;SDS011;37969;53.132;6.370;2023-11-21T04:45:05;91.63;;;25.63;;
51943;SDS011;37969;53.132;6.370;2023-11-21T04:47:37;87.95;;;24.88;;
51943;SDS011;37969;53.132;6.370;2023-11-21T04:50:06;94.60;;;24.73;;
51943;SDS011;37969;53.132;6.370;2023-11-21T04:52:33;82.82;;;23.95;;
51943;SDS011;37969;53.132;6.370;2023-11-21T04:55:00;123.78;;;26.33;;
51943;SDS011;37969;53.132;6.370;2023-11-21T04:57:31;99.55;;;26.23;;
51943;SDS011;37969;53.132;6.370;2023-11-21T04:59:59;82.90;;;25.02;;
51943;SDS011;37969;53.132;6.370;2023-11-21T05:02:25;99.22;;;25.90;;
51943;SDS011;37969;53.132;6.370;2023-11-21T05:04:54;128.03;;;27.83;;
51943;SDS011;37969;53.132;6.370;2023-11-21T05:07:22;94.40;;;25.77;;
51943;SDS011;37969;53.132;6.370;2023-11-21T05:09:49;98.57;;;26.50;;
51943;SDS011;37969;53.132;6.370;2023-11-21T05:12:18;125.80;;;27.38;;
51943;SDS011;37969;53.132;6.370;2023-11-21T05:14:46;96.82;;;25.23;;
51943;SDS011;37969;53.132;6.370;2023-11-21T05:17:12;93.03;;;25.20;;
51943;SDS011;37969;53.132;6.370;2023-11-21T05:19:41;100.07;;;23.95;;
51943;SDS011;37969;53.132;6.370;2023-11-21T05:22:10;119.45;;;26.13;;
51943;SDS011;37969;53.132;6.370;2023-11-21T05:24:39;88.18;;;23.60;;
51943;SDS011;37969;53.132;6.370;2023-11-21T05:27:06;65.03;;;21.50;;
51943;SDS011;37969;53.132;6.370;2023-11-21T05:29:34;74.93;;;21.63;;
51943;SDS011;37969;53.132;6.370;2023-11-21T05:32:06;58.38;;;19.15;;
51943;SDS011;37969;53.132;6.370;2023-11-21T05:34:35;57.80;;;17.85;;
51943;SDS011;37969;53.132;6.370;2023-11-21T05:37:02;57.20;;;18.95;;
51943;SDS011;37969;53.132;6.370;2023-11-21T05:39:30;50.30;;;18.75;;
51943;SDS011;37969;53.132;6.370;2023-11-21T05:41:57;52.67;;;18.25;;
51943;SDS011;37969;53.132;6.370;2023-11-21T05:44:25;45.13;;;16.90;;
51943;SDS011;37969;53.132;6.370;2023-11-21T05:46:54;43.90;;;16.17;;
51943;SDS011;37969;53.132;6.370;2023-11-21T05:49:23;42.53;;;16.67;;
51943;SDS011;37969;53.132;6.370;2023-11-21T05:51:55;45.25;;;16.55;;
51943;SDS011;37969;53.132;6.370;2023-11-21T05:54:21;46.85;;;17.33;;
51943;SDS011;37969;53.132;6.370;2023-11-21T05:56:49;55.90;;;18.25;;
51943;SDS011;37969;53.132;6.370;2023-11-21T05:59:16;51.60;;;18.10;;
51943;SDS011;37969;53.132;6.370;2023-11-21T06:01:42;56.00;;;20.15;;
51943;SDS011;37969;53.132;6.370;2023-11-21T06:04:13;67.93;;;20.25;;
51943;SDS011;37969;53.132;6.370;2023-11-21T06:06:41;65.35;;;21.17;;
51943;SDS011;37969;53.132;6.370;2023-11-21T06:09:07;64.85;;;22.88;;
51943;SDS011;37969;53.132;6.370;2023-11-21T06:11:34;60.58;;;21.50;;
51943;SDS011;37969;53.132;6.370;2023-11-21T06:14:01;64.63;;;22.50;;
51943;SDS011;37969;53.132;6.370;2023-11-21T06:16:33;62.28;;;21.70;;
51943;SDS011;37969;53.132;6.370;2023-11-21T06:18:59;54.45;;;20.42;;
51943;SDS011;37969;53.132;6.370;2023-11-21T06:21:27;62.03;;;21.55;;
51943;SDS011;37969;53.132;6.370;2023-11-21T06:23:55;51.58;;;20.25;;
51943;SDS011;37969;53.132;6.370;2023-11-21T06:26:22;49.10;;;18.85;;
51943;SDS011;37969;53.132;6.370;2023-11-21T06:28:50;47.13;;;18.42;;
51943;SDS011;37969;53.132;6.370;2023-11-21T06:31:22;58.45;;;19.75;;
51943;SDS011;37969;53.132;6.370;2023-11-21T06:33:48;49.72;;;19.83;;
51943;SDS011;37969;53.132;6.370;2023-11-21T06:36:20;59.95;;;19.35;;
51943;SDS011;37969;53.132;6.370;2023-11-21T06:38:46;43.13;;;19.45;;
51943;SDS011;37969;53.132;6.370;2023-11-21T06:41:15;49.23;;;18.90;;
51943;SDS011;37969;53.132;6.370;2023-11-21T06:43:41;42.63;;;17.88;;
51943;SDS011;37969;53.132;6.370;2023-11-21T06:46:11;48.03;;;17.88;;
51943;SDS011;37969;53.132;6.370;2023-11-21T06:48:41;41.92;;;17.25;;
51943;SDS011;37969;53.132;6.370;2023-11-21T06:51:10;52.20;;;19.08;;
51943;SDS011;37969;53.132;6.370;2023-11-21T06:53:36;46.90;;;17.65;;
51943;SDS011;37969;53.132;6.370;2023-11-21T06:56:04;56.88;;;19.10;;
51943;SDS011;37969;53.132;6.370;2023-11-21T06:58:32;56.58;;;21.23;;
51943;SDS011;37969;53.132;6.370;2023-11-21T07:01:01;66.53;;;21.15;;
51943;SDS011;37969;53.132;6.370;2023-11-21T07:03:28;60.40;;;20.55;;
51943;SDS011;37969;53.132;6.370;2023-11-21T07:05:57;64.70;;;21.73;;
51943;SDS011;37969;53.132;6.370;2023-11-21T07:08:27;72.13;;;22.17;;
51943;SDS011;37969;53.132;6.370;2023-11-21T07:10:54;69.47;;;21.83;;
51943;SDS011;37969;53.132;6.370;2023-11-21T07:13:22;75.47;;;24.65;;
51943;SDS011;37969;53.132;6.370;2023-11-21T07:15:48;71.85;;;23.98;;
51943;SDS011;37969;53.132;6.370;2023-11-21T07:18:17;73.70;;;24.80;;
51943;SDS011;37969;53.132;6.370;2023-11-21T07:20:46;78.95;;;23.83;;
51943;SDS011;37969;53.132;6.370;2023-11-21T07:23:13;71.68;;;25.35;;
51943;SDS011;37969;53.132;6.370;2023-11-21T07:25:40;71.35;;;23.55;;
51943;SDS011;37969;53.132;6.370;2023-11-21T07:28:08;78.93;;;24.52;;
51943;SDS011;37969;53.132;6.370;2023-11-21T07:30:34;72.03;;;23.88;;
51943;SDS011;37969;53.132;6.370;2023-11-21T07:33:01;68.43;;;22.23;;
51943;SDS011;37969;53.132;6.370;2023-11-21T07:35:29;57.72;;;19.38;;
51943;SDS011;37969;53.132;6.370;2023-11-21T07:37:59;54.20;;;17.48;;
51943;SDS011;37969;53.132;6.370;2023-11-21T07:40:26;53.05;;;17.70;;
51943;SDS011;37969;53.132;6.370;2023-11-21T07:42:55;49.50;;;17.08;;
51943;SDS011;37969;53.132;6.370;2023-11-21T07:47:56;53.58;;;17.48;;
51943;SDS011;37969;53.132;6.370;2023-11-21T07:50:22;56.20;;;19.23;;
51943;SDS011;37969;53.132;6.370;2023-11-21T07:52:53;49.42;;;19.38;;
51943;SDS011;37969;53.132;6.370;2023-11-21T07:55:25;57.03;;;21.88;;
51943;SDS011;37969;53.132;6.370;2023-11-21T07:57:57;60.00;;;23.90;;
51943;SDS011;37969;53.132;6.370;2023-11-21T08:00:24;59.22;;;25.52;;
51943;SDS011;37969;53.132;6.370;2023-11-21T08:02:55;64.30;;;25.65;;
51943;SDS011;37969;53.132;6.370;2023-11-21T08:05:21;73.47;;;26.52;;
51943;SDS011;37969;53.132;6.370;2023-11-21T08:07:53;73.55;;;29.85;;
51943;SDS011;37969;53.132;6.370;2023-11-21T08:10:21;71.32;;;29.45;;
51943;SDS011;37969;53.132;6.370;2023-11-21T08:12:47;79.55;;;30.08;;
51943;SDS011;37969;53.132;6.370;2023-11-21T08:15:16;78.18;;;30.25;;
51943;SDS011;37969;53.132;6.370;2023-11-21T08:17:43;72.10;;;28.90;;
51943;SDS011;37969;53.132;6.370;2023-11-21T08:20:14;64.07;;;27.48;;
51943;SDS011;37969;53.132;6.370;2023-11-21T08:22:41;57.50;;;25.83;;
51943;SDS011;37969;53.132;6.370;2023-11-21T08:25:09;53.17;;;24.40;;
51943;SDS011;37969;53.132;6.370;2023-11-21T08:27:40;57.80;;;26.05;;
51943;SDS011;37969;53.132;6.370;2023-11-21T08:30:06;54.88;;;24.70;;
51943;SDS011;37969;53.132;6.370;2023-11-21T08:32:34;52.97;;;25.05;;
51943;SDS011;37969;53.132;6.370;2023-11-21T08:35:04;47.83;;;24.55;;
51943;SDS011;37969;53.132;6.370;2023-11-21T08:37:31;55.08;;;25.70;;
51943;SDS011;37969;53.132;6.370;2023-11-21T08:39:58;57.58;;;27.38;;
51943;SDS011;37969;53.132;6.370;2023-11-21T08:42:24;62.83;;;28.52;;
51943;SDS011;37969;53.132;6.370;2023-11-21T08:44:55;57.55;;;28.20;;
51943;SDS011;37969;53.132;6.370;2023-11-21T08:47:27;61.33;;;29.95;;
51943;SDS011;37969;53.132;6.370;2023-11-21T08:49:55;59.22;;;28.77;;
51943;SDS011;37969;53.132;6.370;2023-11-21T08:52:27;60.40;;;29.92;;
51943;SDS011;37969;53.132;6.370;2023-11-21T08:54:58;60.42;;;30.65;;
51943;SDS011;37969;53.132;6.370;2023-11-21T08:57:33;61.33;;;31.00;;
51943;SDS011;37969;53.132;6.370;2023-11-21T09:00:00;58.35;;;30.15;;
51943;SDS011;37969;53.132;6.370;2023-11-21T09:02:26;56.47;;;31.13;;
51943;SDS011;37969;53.132;6.370;2023-11-21T09:04:59;53.22;;;28.80;;
51943;SDS011;37969;53.132;6.370;2023-11-21T09:07:32;57.80;;;30.00;;
51943;SDS011;37969;53.132;6.370;2023-11-21T09:09:58;57.13;;;30.02;;
51943;SDS011;37969;53.132;6.370;2023-11-21T09:12:26;56.70;;;30.20;;
51943;SDS011;37969;53.132;6.370;2023-11-21T09:14:57;52.25;;;29.73;;
51943;SDS011;37969;53.132;6.370;2023-11-21T09:17:30;47.95;;;27.35;;
51943;SDS011;37969;53.132;6.370;2023-11-21T09:19:56;46.03;;;26.52;;
51943;SDS011;37969;53.132;6.370;2023-11-21T09:22:25;42.90;;;25.10;;
51943;SDS011;37969;53.132;6.370;2023-11-21T09:24:57;41.15;;;25.52;;
51943;SDS011;37969;53.132;6.370;2023-11-21T09:27:24;37.10;;;24.77;;
51943;SDS011;37969;53.132;6.370;2023-11-21T09:29:55;37.85;;;24.70;;
51943;SDS011;37969;53.132;6.370;2023-11-21T09:32:23;44.20;;;26.10;;
51943;SDS011;37969;53.132;6.370;2023-11-21T09:34:50;33.90;;;23.73;;
51943;SDS011;37969;53.132;6.370;2023-11-21T09:37:23;38.05;;;24.73;;
51943;SDS011;37969;53.132;6.370;2023-11-21T09:39:54;38.28;;;25.10;;
51943;SDS011;37969;53.132;6.370;2023-11-21T09:42:25;32.73;;;23.60;;
51943;SDS011;37969;53.132;6.370;2023-11-21T09:47:33;26.55;;;19.23;;
51943;SDS011;37969;53.132;6.370;2023-11-21T09:50:03;28.10;;;20.90;;
51943;SDS011;37969;53.132;6.370;2023-11-21T09:52:44;28.40;;;21.58;;
51943;SDS011;37969;53.132;6.370;2023-11-21T09:55:18;33.25;;;22.55;;
51943;SDS011;37969;53.132;6.370;2023-11-21T09:57:47;33.25;;;22.85;;
51943;SDS011;37969;53.132;6.370;2023-11-21T10:00:15;31.02;;;20.98;;
51943;SDS011;37969;53.132;6.370;2023-11-21T10:02:43;31.08;;;21.70;;
51943;SDS011;37969;53.132;6.370;2023-11-21T10:05:12;30.08;;;21.20;;
51943;SDS011;37969;53.132;6.370;2023-11-21T10:07:38;27.45;;;21.15;;
51943;SDS011;37969;53.132;6.370;2023-11-21T10:10:08;31.27;;;21.35;;
51943;SDS011;37969;53.132;6.370;2023-11-21T10:12:37;32.83;;;22.03;;
51943;SDS011;37969;53.132;6.370;2023-11-21T10:15:06;31.77;;;21.52;;
51943;SDS011;37969;53.132;6.370;2023-11-21T10:17:35;30.33;;;21.88;;
51943;SDS011;37969;53.132;6.370;2023-11-21T10:20:08;32.75;;;21.77;;
51943;SDS011;37969;53.132;6.370;2023-11-21T10:22:38;30.80;;;21.23;;
51943;SDS011;37969;53.132;6.370;2023-11-21T10:25:08;26.17;;;20.85;;
51943;SDS011;37969;53.132;6.370;2023-11-21T10:27:35;32.45;;;21.75;;
51943;SDS011;37969;53.132;6.370;2023-11-21T10:30:08;28.73;;;20.48;;
51943;SDS011;37969;53.132;6.370;2023-11-21T10:32:42;30.23;;;18.98;;
51943;SDS011;37969;53.132;6.370;2023-11-21T10:35:12;26.02;;;19.08;;
51943;SDS011;37969;53.132;6.370;2023-11-21T10:37:41;24.27;;;17.85;;
51943;SDS011;37969;53.132;6.370;2023-11-21T10:40:10;23.35;;;17.92;;
51943;SDS011;37969;53.132;6.370;2023-11-21T10:42:42;18.83;;;15.88;;
51943;SDS011;37969;53.132;6.370;2023-11-21T10:45:10;21.10;;;16.42;;
51943;SDS011;37969;53.132;6.370;2023-11-21T10:47:41;21.77;;;16.83;;
51943;SDS011;37969;53.132;6.370;2023-11-21T10:50:09;18.35;;;14.98;;
51943;SDS011;37969;53.132;6.370;2023-11-21T10:52:39;20.63;;;14.30;;
51943;SDS011;37969;53.132;6.370;2023-11-21T10:55:20;18.73;;;14.05;;
51943;SDS011;37969;53.132;6.370;2023-11-21T10:57:52;14.82;;;12.15;;
51943;SDS011;37969;53.132;6.370;2023-11-21T11:00:19;18.15;;;13.25;;
51943;SDS011;37969;53.132;6.370;2023-11-21T11:02:48;15.38;;;13.00;;
51943;SDS011;37969;53.132;6.370;2023-11-21T11:05:19;14.40;;;11.90;;
51943;SDS011;37969;53.132;6.370;2023-11-21T11:07:51;14.63;;;10.25;;
51943;SDS011;37969;53.132;6.370;2023-11-21T11:10:25;16.55;;;11.80;;
51943;SDS011;37969;53.132;6.370;2023-11-21T11:12:53;13.77;;;11.65;;
51943;SDS011;37969;53.132;6.370;2023-11-21T11:15:20;14.77;;;11.88;;
51943;SDS011;37969;53.132;6.370;2023-11-21T11:17:47;17.90;;;12.18;;
51943;SDS011;37969;53.132;6.370;2023-11-21T11:20:14;12.75;;;10.70;;
51943;SDS011;37969;53.132;6.370;2023-11-21T11:27:59;14.32;;;9.38;;
51943;SDS011;37969;53.132;6.370;2023-11-21T11:30:36;11.90;;;8.93;;
51943;SDS011;37969;53.132;6.370;2023-11-21T11:33:25;12.02;;;9.02;;
51943;SDS011;37969;53.132;6.370;2023-11-21T11:36:04;10.48;;;8.50;;
51943;SDS011;37969;53.132;6.370;2023-11-21T11:38:36;10.50;;;8.98;;
51943;SDS011;37969;53.132;6.370;2023-11-21T11:41:10;13.02;;;9.50;;
51943;SDS011;37969;53.132;6.370;2023-11-21T11:43:38;11.23;;;9.13;;
51943;SDS011;37969;53.132;6.370;2023-11-21T11:46:10;10.93;;;8.52;;
51943;SDS011;37969;53.132;6.370;2023-11-21T11:48:40;13.73;;;8.75;;
51943;SDS011;37969;53.132;6.370;2023-11-21T11:51:10;9.93;;;7.78;;
51943;SDS011;37969;53.132;6.370;2023-11-21T11:53:40;8.85;;;7.53;;
51943;SDS011;37969;53.132;6.370;2023-11-21T11:56:24;10.50;;;8.30;;
51943;SDS011;37969;53.132;6.370;2023-11-21T11:58:51;8.57;;;6.72;;
51943;SDS011;37969;53.132;6.370;2023-11-21T12:01:19;8.07;;;7.22;;
51943;SDS011;37969;53.132;6.370;2023-11-21T12:06:39;7.85;;;6.68;;
51943;SDS011;37969;53.132;6.370;2023-11-21T12:09:18;8.07;;;7.05;;
51943;SDS011;37969;53.132;6.370;2023-11-21T12:11:46;7.90;;;6.57;;
51943;SDS011;37969;53.132;6.370;2023-11-21T12:14:14;7.68;;;6.45;;
51943;SDS011;37969;53.132;6.370;2023-11-21T12:16:43;8.13;;;6.47;;
51943;SDS011;37969;53.132;6.370;2023-11-21T12:19:10;7.13;;;6.43;;
51943;SDS011;37969;53.132;6.370;2023-11-21T12:21:38;9.40;;;7.18;;
51943;SDS011;37969;53.132;6.370;2023-11-21T12:24:09;9.63;;;7.28;;
51943;SDS011;37969;53.132;6.370;2023-11-21T12:26:39;10.52;;;8.38;;
51943;SDS011;37969;53.132;6.370;2023-11-21T12:29:07;10.88;;;7.07;;
51943;SDS011;37969;53.132;6.370;2023-11-21T12:31:36;9.80;;;7.60;;
51943;SDS011;37969;53.132;6.370;2023-11-21T12:34:05;7.95;;;7.03;;
51943;SDS011;37969;53.132;6.370;2023-11-21T12:36:36;11.40;;;7.90;;
51943;SDS011;37969;53.132;6.370;2023-11-21T12:39:03;10.02;;;7.85;;
51943;SDS011;37969;53.132;6.370;2023-11-21T12:41:29;7.65;;;6.82;;
51943;SDS011;37969;53.132;6.370;2023-11-21T12:43:55;10.00;;;7.70;;
51943;SDS011;37969;53.132;6.370;2023-11-21T12:46:23;9.50;;;6.53;;
51943;SDS011;37969;53.132;6.370;2023-11-21T12:48:54;8.95;;;7.30;;
51943;SDS011;37969;53.132;6.370;2023-11-21T12:51:26;9.95;;;7.20;;
51943;SDS011;37969;53.132;6.370;2023-11-21T12:53:55;10.85;;;7.38;;
51943;SDS011;37969;53.132;6.370;2023-11-21T12:56:26;8.52;;;6.47;;
51943;SDS011;37969;53.132;6.370;2023-11-21T12:58:53;7.07;;;6.15;;
51943;SDS011;37969;53.132;6.370;2023-11-21T13:01:24;9.15;;;6.68;;
51943;SDS011;37969;53.132;6.370;2023-11-21T13:03:53;11.52;;;7.32;;
51943;SDS011;37969;53.132;6.370;2023-11-21T13:06:21;10.25;;;7.35;;
51943;SDS011;37969;53.132;6.370;2023-11-21T13:11:17;9.20;;;7.90;;
51943;SDS011;37969;53.132;6.370;2023-11-21T13:13:47;9.68;;;7.72;;
51943;SDS011;37969;53.132;6.370;2023-11-21T13:16:14;10.90;;;8.13;;
51943;SDS011;37969;53.132;6.370;2023-11-21T13:18:41;11.50;;;8.82;;
51943;SDS011;37969;53.132;6.370;2023-11-21T13:21:09;11.65;;;8.65;;
51943;SDS011;37969;53.132;6.370;2023-11-21T13:23:39;12.77;;;8.98;;
51943;SDS011;37969;53.132;6.370;2023-11-21T13:26:06;10.25;;;8.50;;
51943;SDS011;37969;53.132;6.370;2023-11-21T13:31:11;11.40;;;8.40;;
51943;SDS011;37969;53.132;6.370;2023-11-21T13:33:54;10.85;;;8.05;;
51943;SDS011;37969;53.132;6.370;2023-11-21T13:36:30;9.98;;;8.45;;
51943;SDS011;37969;53.132;6.370;2023-11-21T13:39:00;11.60;;;8.63;;
51943;SDS011;37969;53.132;6.370;2023-11-21T13:41:33;10.60;;;8.50;;
51943;SDS011;37969;53.132;6.370;2023-11-21T13:44:03;11.25;;;8.38;;
51943;SDS011;37969;53.132;6.370;2023-11-21T13:46:41;12.43;;;8.40;;
51943;SDS011;37969;53.132;6.370;2023-11-21T13:49:14;10.85;;;7.82;;
51943;SDS011;37969;53.132;6.370;2023-11-21T13:51:41;9.57;;;8.15;;
51943;SDS011;37969;53.132;6.370;2023-11-21T13:54:15;9.93;;;7.80;;
51943;SDS011;37969;53.132;6.370;2023-11-21T13:56:47;11.73;;;8.27;;
51943;SDS011;37969;53.132;6.370;2023-11-21T13:59:17;10.63;;;8.45;;
51943;SDS011;37969;53.132;6.370;2023-11-21T14:01:48;9.82;;;8.30;;
51943;SDS011;37969;53.132;6.370;2023-11-21T14:04:24;10.32;;;8.20;;
51943;SDS011;37969;53.132;6.370;2023-11-21T14:06:51;11.00;;;7.97;;
51943;SDS011;37969;53.132;6.370;2023-11-21T14:09:20;10.32;;;7.65;;
51943;SDS011;37969;53.132;6.370;2023-11-21T14:11:52;10.00;;;7.97;;
51943;SDS011;37969;53.132;6.370;2023-11-21T14:14:19;11.05;;;7.35;;
51943;SDS011;37969;53.132;6.370;2023-11-21T14:16:45;10.25;;;8.25;;
51943;SDS011;37969;53.132;6.370;2023-11-21T14:19:14;12.93;;;8.43;;
51943;SDS011;37969;53.132;6.370;2023-11-21T14:21:44;10.32;;;8.02;;
51943;SDS011;37969;53.132;6.370;2023-11-21T14:24:11;13.35;;;9.02;;
51943;SDS011;37969;53.132;6.370;2023-11-21T14:26:40;11.45;;;8.63;;
51943;SDS011;37969;53.132;6.370;2023-11-21T14:29:07;11.05;;;8.77;;
51943;SDS011;37969;53.132;6.370;2023-11-21T14:31:39;11.05;;;7.78;;
51943;SDS011;37969;53.132;6.370;2023-11-21T14:34:06;9.57;;;8.02;;
51943;SDS011;37969;53.132;6.370;2023-11-21T14:36:34;10.02;;;7.28;;
51943;SDS011;37969;53.132;6.370;2023-11-21T14:39:04;9.23;;;6.65;;
51943;SDS011;37969;53.132;6.370;2023-11-21T14:41:41;10.55;;;7.22;;
51943;SDS011;37969;53.132;6.370;2023-11-21T14:44:09;10.68;;;6.43;;
51943;SDS011;37969;53.132;6.370;2023-11-21T14:46:39;9.63;;;7.32;;
51943;SDS011;37969;53.132;6.370;2023-11-21T14:49:13;9.18;;;6.30;;
51943;SDS011;37969;53.132;6.370;2023-11-21T14:51:47;11.82;;;5.80;;
51943;SDS011;37969;53.132;6.370;2023-11-21T14:54:27;13.38;;;7.40;;
51943;SDS011;37969;53.132;6.370;2023-11-21T14:57:07;6.97;;;5.50;;
51943;SDS011;37969;53.132;6.370;2023-11-21T14:59:42;14.20;;;6.43;;
51943;SDS011;37969;53.132;6.370;2023-11-21T15:02:08;11.52;;;6.35;;
51943;SDS011;37969;53.132;6.370;2023-11-21T15:04:41;14.48;;;6.68;;